sensor_id;sensor_type;location;lat;lon;timestamp;P1;durP1;ratioP1;P2;durP2;ratioP2
67715;SDS011;54508;43.238;25.306;2023-01-16T00:01:25;20.73;;;13.90;;
67715;SDS011;54508;43.238;25.306;2023-01-16T00:03:51;22.42;;;13.70;;
67715;SDS011;54508;43.238;25.306;2023-01-16T00:06:16;22.33;;;13.97;;
67715;SDS011;54508;43.238;25.306;2023-01-16T00:08:42;20.52;;;13.75;;
67715;SDS011;54508;43.238;25.306;2023-01-16T00:11:08;21.37;;;14.23;;
67715;SDS011;54508;43.238;25.306;2023-01-16T00:13:34;21.05;;;14.25;;
67715;SDS011;54508;43.238;25.306;2023-01-16T00:15:59;22.90;;;14.07;;
67715;SDS011;54508;43.238;25.306;2023-01-16T00:18:25;23.52;;;13.75;;
67715;SDS011;54508;43.238;25.306;2023-01-16T00:20:50;21.03;;;13.67;;
67715;SDS011;54508;43.238;25.306;2023-01-16T00:23:16;20.33;;;12.77;;
67715;SDS011;54508;43.238;25.306;2023-01-16T00:25:42;22.85;;;13.13;;
67715;SDS011;54508;43.238;25.306;2023-01-16T00:28:08;21.23;;;13.40;;
67715;SDS011;54508;43.238;25.306;2023-01-16T00:30:35;21.90;;;12.10;;
67715;SDS011;54508;43.238;25.306;2023-01-16T00:33:00;20.08;;;13.00;;
67715;SDS011;54508;43.238;25.306;2023-01-16T00:35:26;20.27;;;12.77;;
67715;SDS011;54508;43.238;25.306;2023-01-16T00:37:52;20.65;;;13.50;;
67715;SDS011;54508;43.238;25.306;2023-01-16T00:40:18;23.13;;;13.80;;
67715;SDS011;54508;43.238;25.306;2023-01-16T00:42:44;18.27;;;12.57;;
67715;SDS011;54508;43.238;25.306;2023-01-16T00:45:09;23.92;;;13.90;;
67715;SDS011;54508;43.238;25.306;2023-01-16T00:47:35;18.90;;;12.68;;
67715;SDS011;54508;43.238;25.306;2023-01-16T00:50:01;20.48;;;13.43;;
67715;SDS011;54508;43.238;25.306;2023-01-16T00:52:26;20.77;;;12.63;;
67715;SDS011;54508;43.238;25.306;2023-01-16T00:54:52;20.23;;;13.63;;
67715;SDS011;54508;43.238;25.306;2023-01-16T00:57:17;19.00;;;12.57;;
67715;SDS011;54508;43.238;25.306;2023-01-16T00:59:42;20.00;;;12.68;;
67715;SDS011;54508;43.238;25.306;2023-01-16T01:02:08;19.20;;;12.47;;
67715;SDS011;54508;43.238;25.306;2023-01-16T01:04:33;19.50;;;12.63;;
67715;SDS011;54508;43.238;25.306;2023-01-16T01:07:04;19.17;;;12.43;;
67715;SDS011;54508;43.238;25.306;2023-01-16T01:09:29;19.08;;;13.15;;
67715;SDS011;54508;43.238;25.306;2023-01-16T01:12:01;18.53;;;12.47;;
67715;SDS011;54508;43.238;25.306;2023-01-16T01:14:27;18.70;;;12.50;;
67715;SDS011;54508;43.238;25.306;2023-01-16T01:16:52;19.90;;;11.90;;
67715;SDS011;54508;43.238;25.306;2023-01-16T01:19:18;19.30;;;12.47;;
67715;SDS011;54508;43.238;25.306;2023-01-16T01:21:43;20.88;;;12.05;;
67715;SDS011;54508;43.238;25.306;2023-01-16T01:24:10;17.23;;;12.13;;
67715;SDS011;54508;43.238;25.306;2023-01-16T01:26:36;17.95;;;11.73;;
67715;SDS011;54508;43.238;25.306;2023-01-16T01:29:01;19.37;;;12.00;;
67715;SDS011;54508;43.238;25.306;2023-01-16T01:31:27;19.60;;;11.73;;
67715;SDS011;54508;43.238;25.306;2023-01-16T01:33:58;18.33;;;11.98;;
67715;SDS011;54508;43.238;25.306;2023-01-16T01:36:23;18.27;;;11.65;;
67715;SDS011;54508;43.238;25.306;2023-01-16T01:38:52;16.07;;;11.40;;
67715;SDS011;54508;43.238;25.306;2023-01-16T01:41:18;15.82;;;11.55;;
67715;SDS011;54508;43.238;25.306;2023-01-16T01:43:45;19.33;;;11.93;;
67715;SDS011;54508;43.238;25.306;2023-01-16T01:46:20;16.33;;;11.70;;
67715;SDS011;54508;43.238;25.306;2023-01-16T01:48:53;16.90;;;11.75;;
67715;SDS011;54508;43.238;25.306;2023-01-16T01:51:27;15.93;;;10.53;;
67715;SDS011;54508;43.238;25.306;2023-01-16T01:54:07;17.92;;;11.38;;
67715;SDS011;54508;43.238;25.306;2023-01-16T01:56:48;18.42;;;11.82;;
67715;SDS011;54508;43.238;25.306;2023-01-16T01:59:17;17.15;;;11.18;;
67715;SDS011;54508;43.238;25.306;2023-01-16T02:01:46;17.83;;;11.50;;
67715;SDS011;54508;43.238;25.306;2023-01-16T02:04:15;16.97;;;11.13;;
67715;SDS011;54508;43.238;25.306;2023-01-16T02:06:44;17.77;;;11.57;;
67715;SDS011;54508;43.238;25.306;2023-01-16T02:09:12;15.32;;;11.00;;
67715;SDS011;54508;43.238;25.306;2023-01-16T02:11:43;16.20;;;10.77;;
67715;SDS011;54508;43.238;25.306;2023-01-16T02:14:13;16.27;;;11.18;;
67715;SDS011;54508;43.238;25.306;2023-01-16T02:16:40;17.73;;;11.63;;
67715;SDS011;54508;43.238;25.306;2023-01-16T02:36:28;20.35;;;12.55;;
67715;SDS011;54508;43.238;25.306;2023-01-16T02:39:06;18.63;;;12.90;;
67715;SDS011;54508;43.238;25.306;2023-01-16T02:54:47;20.55;;;12.50;;
67715;SDS011;54508;43.238;25.306;2023-01-16T02:57:25;19.83;;;13.70;;
67715;SDS011;54508;43.238;25.306;2023-01-16T02:59:53;23.20;;;13.38;;
67715;SDS011;54508;43.238;25.306;2023-01-16T03:02:18;19.77;;;13.05;;
67715;SDS011;54508;43.238;25.306;2023-01-16T03:26:23;17.27;;;11.67;;
67715;SDS011;54508;43.238;25.306;2023-01-16T03:29:10;19.63;;;11.88;;
67715;SDS011;54508;43.238;25.306;2023-01-16T03:32:09;18.05;;;12.35;;
67715;SDS011;54508;43.238;25.306;2023-01-16T03:34:48;20.00;;;12.52;;
67715;SDS011;54508;43.238;25.306;2023-01-16T03:39:59;17.00;;;11.77;;
67715;SDS011;54508;43.238;25.306;2023-01-16T03:42:39;16.63;;;11.45;;
67715;SDS011;54508;43.238;25.306;2023-01-16T03:45:12;15.85;;;11.10;;
67715;SDS011;54508;43.238;25.306;2023-01-16T03:47:49;16.98;;;11.40;;
67715;SDS011;54508;43.238;25.306;2023-01-16T03:50:17;18.70;;;11.88;;
67715;SDS011;54508;43.238;25.306;2023-01-16T03:52:45;16.00;;;10.63;;
67715;SDS011;54508;43.238;25.306;2023-01-16T03:58:09;14.45;;;10.15;;
67715;SDS011;54508;43.238;25.306;2023-01-16T04:03:37;13.88;;;9.98;;
67715;SDS011;54508;43.238;25.306;2023-01-16T04:08:45;15.35;;;10.20;;
67715;SDS011;54508;43.238;25.306;2023-01-16T04:11:11;14.85;;;9.75;;
67715;SDS011;54508;43.238;25.306;2023-01-16T04:13:38;16.45;;;10.00;;
67715;SDS011;54508;43.238;25.306;2023-01-16T04:16:06;14.60;;;10.00;;
67715;SDS011;54508;43.238;25.306;2023-01-16T04:18:34;12.87;;;9.10;;
67715;SDS011;54508;43.238;25.306;2023-01-16T04:21:02;14.88;;;9.63;;
67715;SDS011;54508;43.238;25.306;2023-01-16T04:23:29;15.95;;;9.95;;
67715;SDS011;54508;43.238;25.306;2023-01-16T04:25:55;14.53;;;9.60;;
67715;SDS011;54508;43.238;25.306;2023-01-16T04:28:20;14.25;;;9.30;;
67715;SDS011;54508;43.238;25.306;2023-01-16T04:30:47;14.73;;;9.53;;
67715;SDS011;54508;43.238;25.306;2023-01-16T04:33:12;14.90;;;9.25;;
67715;SDS011;54508;43.238;25.306;2023-01-16T04:35:43;14.73;;;9.57;;
67715;SDS011;54508;43.238;25.306;2023-01-16T04:38:08;14.82;;;9.93;;
67715;SDS011;54508;43.238;25.306;2023-01-16T04:40:34;17.43;;;8.77;;
67715;SDS011;54508;43.238;25.306;2023-01-16T04:43:04;13.43;;;8.97;;
67715;SDS011;54508;43.238;25.306;2023-01-16T04:45:30;13.90;;;9.65;;
67715;SDS011;54508;43.238;25.306;2023-01-16T04:48:01;15.97;;;9.40;;
67715;SDS011;54508;43.238;25.306;2023-01-16T04:50:27;18.65;;;9.70;;
67715;SDS011;54508;43.238;25.306;2023-01-16T04:52:52;13.43;;;9.10;;
67715;SDS011;54508;43.238;25.306;2023-01-16T04:55:18;14.18;;;9.55;;
67715;SDS011;54508;43.238;25.306;2023-01-16T04:57:43;15.03;;;9.27;;
67715;SDS011;54508;43.238;25.306;2023-01-16T05:00:10;16.23;;;9.60;;
67715;SDS011;54508;43.238;25.306;2023-01-16T05:02:36;12.95;;;8.98;;
67715;SDS011;54508;43.238;25.306;2023-01-16T05:05:01;14.50;;;8.93;;
67715;SDS011;54508;43.238;25.306;2023-01-16T05:07:27;13.68;;;8.90;;
67715;SDS011;54508;43.238;25.306;2023-01-16T05:09:53;14.50;;;8.83;;
67715;SDS011;54508;43.238;25.306;2023-01-16T05:12:18;13.52;;;9.63;;
67715;SDS011;54508;43.238;25.306;2023-01-16T05:14:44;13.43;;;9.53;;
67715;SDS011;54508;43.238;25.306;2023-01-16T05:17:10;18.30;;;9.35;;
67715;SDS011;54508;43.238;25.306;2023-01-16T05:19:35;13.40;;;10.10;;
67715;SDS011;54508;43.238;25.306;2023-01-16T05:22:01;15.60;;;9.50;;
67715;SDS011;54508;43.238;25.306;2023-01-16T05:24:26;16.50;;;9.70;;
67715;SDS011;54508;43.238;25.306;2023-01-16T05:26:51;11.55;;;9.52;;
67715;SDS011;54508;43.238;25.306;2023-01-16T05:29:17;12.65;;;9.43;;
67715;SDS011;54508;43.238;25.306;2023-01-16T05:31:42;12.57;;;9.63;;
67715;SDS011;54508;43.238;25.306;2023-01-16T05:34:08;11.90;;;9.13;;
67715;SDS011;54508;43.238;25.306;2023-01-16T05:36:34;13.20;;;9.45;;
67715;SDS011;54508;43.238;25.306;2023-01-16T05:39:00;14.77;;;10.17;;
67715;SDS011;54508;43.238;25.306;2023-01-16T05:41:25;14.70;;;9.45;;
67715;SDS011;54508;43.238;25.306;2023-01-16T05:43:57;12.23;;;9.37;;
67715;SDS011;54508;43.238;25.306;2023-01-16T05:46:22;15.50;;;10.02;;
67715;SDS011;54508;43.238;25.306;2023-01-16T05:48:48;13.73;;;9.60;;
67715;SDS011;54508;43.238;25.306;2023-01-16T05:51:13;14.53;;;9.87;;
67715;SDS011;54508;43.238;25.306;2023-01-16T05:53:45;13.35;;;9.38;;
67715;SDS011;54508;43.238;25.306;2023-01-16T05:56:20;17.67;;;9.13;;
67715;SDS011;54508;43.238;25.306;2023-01-16T05:58:48;16.38;;;10.10;;
67715;SDS011;54508;43.238;25.306;2023-01-16T06:01:16;15.15;;;9.35;;
67715;SDS011;54508;43.238;25.306;2023-01-16T06:03:41;13.80;;;9.30;;
67715;SDS011;54508;43.238;25.306;2023-01-16T06:06:07;16.47;;;10.30;;
67715;SDS011;54508;43.238;25.306;2023-01-16T06:08:32;14.03;;;8.93;;
67715;SDS011;54508;43.238;25.306;2023-01-16T06:10:58;15.30;;;9.75;;
67715;SDS011;54508;43.238;25.306;2023-01-16T06:13:23;15.30;;;9.40;;
67715;SDS011;54508;43.238;25.306;2023-01-16T06:15:49;14.87;;;9.27;;
67715;SDS011;54508;43.238;25.306;2023-01-16T06:18:14;14.87;;;8.80;;
67715;SDS011;54508;43.238;25.306;2023-01-16T06:20:40;12.25;;;8.65;;
67715;SDS011;54508;43.238;25.306;2023-01-16T06:23:07;13.68;;;9.25;;
67715;SDS011;54508;43.238;25.306;2023-01-16T06:25:33;13.32;;;8.98;;
67715;SDS011;54508;43.238;25.306;2023-01-16T06:27:58;12.20;;;8.33;;
67715;SDS011;54508;43.238;25.306;2023-01-16T06:30:24;18.35;;;9.40;;
67715;SDS011;54508;43.238;25.306;2023-01-16T06:32:49;18.50;;;10.65;;
67715;SDS011;54508;43.238;25.306;2023-01-16T06:35:15;18.13;;;9.73;;
67715;SDS011;54508;43.238;25.306;2023-01-16T06:37:41;14.73;;;9.63;;
67715;SDS011;54508;43.238;25.306;2023-01-16T06:40:06;14.97;;;9.40;;
67715;SDS011;54508;43.238;25.306;2023-01-16T06:42:33;12.73;;;9.50;;
67715;SDS011;54508;43.238;25.306;2023-01-16T06:44:58;15.10;;;8.90;;
67715;SDS011;54508;43.238;25.306;2023-01-16T06:47:23;15.70;;;9.60;;
67715;SDS011;54508;43.238;25.306;2023-01-16T06:49:49;11.10;;;8.00;;
67715;SDS011;54508;43.238;25.306;2023-01-16T06:52:14;11.90;;;8.60;;
67715;SDS011;54508;43.238;25.306;2023-01-16T06:54:40;18.93;;;9.33;;
67715;SDS011;54508;43.238;25.306;2023-01-16T06:57:05;15.60;;;9.50;;
67715;SDS011;54508;43.238;25.306;2023-01-16T06:59:31;30.00;;;11.15;;
67715;SDS011;54508;43.238;25.306;2023-01-16T07:01:56;21.40;;;11.67;;
67715;SDS011;54508;43.238;25.306;2023-01-16T07:04:22;23.70;;;10.77;;
67715;SDS011;54508;43.238;25.306;2023-01-16T07:06:48;23.80;;;10.57;;
67715;SDS011;54508;43.238;25.306;2023-01-16T07:09:15;21.92;;;10.38;;
67715;SDS011;54508;43.238;25.306;2023-01-16T07:11:41;24.03;;;13.00;;
67715;SDS011;54508;43.238;25.306;2023-01-16T07:14:06;23.30;;;12.27;;
67715;SDS011;54508;43.238;25.306;2023-01-16T07:16:51;18.95;;;10.02;;
67715;SDS011;54508;43.238;25.306;2023-01-16T07:19:35;17.67;;;10.15;;
67715;SDS011;54508;43.238;25.306;2023-01-16T07:22:19;18.48;;;10.13;;
67715;SDS011;54508;43.238;25.306;2023-01-16T07:25:00;20.27;;;11.07;;
67715;SDS011;54508;43.238;25.306;2023-01-16T07:27:27;19.57;;;10.90;;
67715;SDS011;54508;43.238;25.306;2023-01-16T07:29:53;21.65;;;10.70;;
67715;SDS011;54508;43.238;25.306;2023-01-16T07:32:19;14.77;;;10.20;;
67715;SDS011;54508;43.238;25.306;2023-01-16T07:34:44;20.92;;;9.52;;
67715;SDS011;54508;43.238;25.306;2023-01-16T07:37:10;18.67;;;9.60;;
67715;SDS011;54508;43.238;25.306;2023-01-16T07:39:36;16.10;;;9.68;;
67715;SDS011;54508;43.238;25.306;2023-01-16T07:42:02;23.23;;;12.00;;
67715;SDS011;54508;43.238;25.306;2023-01-16T07:44:29;24.75;;;14.75;;
67715;SDS011;54508;43.238;25.306;2023-01-16T07:46:54;32.00;;;16.47;;
67715;SDS011;54508;43.238;25.306;2023-01-16T07:49:20;25.55;;;15.50;;
67715;SDS011;54508;43.238;25.306;2023-01-16T07:51:45;29.13;;;14.97;;
67715;SDS011;54508;43.238;25.306;2023-01-16T07:54:11;23.47;;;14.20;;
67715;SDS011;54508;43.238;25.306;2023-01-16T07:56:36;32.90;;;12.07;;
67715;SDS011;54508;43.238;25.306;2023-01-16T07:59:02;24.20;;;11.30;;
67715;SDS011;54508;43.238;25.306;2023-01-16T08:01:27;20.00;;;10.80;;
67715;SDS011;54508;43.238;25.306;2023-01-16T08:03:53;21.23;;;10.77;;
67715;SDS011;54508;43.238;25.306;2023-01-16T08:06:18;15.83;;;9.60;;
67715;SDS011;54508;43.238;25.306;2023-01-16T08:08:44;21.35;;;9.73;;
67715;SDS011;54508;43.238;25.306;2023-01-16T08:11:09;14.50;;;8.63;;
67715;SDS011;54508;43.238;25.306;2023-01-16T08:13:53;12.55;;;7.90;;
67715;SDS011;54508;43.238;25.306;2023-01-16T08:16:19;13.20;;;8.23;;
67715;SDS011;54508;43.238;25.306;2023-01-16T08:18:44;17.73;;;7.80;;
67715;SDS011;54508;43.238;25.306;2023-01-16T08:21:13;11.93;;;8.13;;
67715;SDS011;54508;43.238;25.306;2023-01-16T08:23:39;13.40;;;7.10;;
67715;SDS011;54508;43.238;25.306;2023-01-16T08:26:05;11.73;;;7.53;;
67715;SDS011;54508;43.238;25.306;2023-01-16T08:28:31;13.00;;;8.13;;
67715;SDS011;54508;43.238;25.306;2023-01-16T08:31:02;14.50;;;9.43;;
67715;SDS011;54508;43.238;25.306;2023-01-16T08:33:35;17.98;;;9.95;;
67715;SDS011;54508;43.238;25.306;2023-01-16T08:36:04;16.83;;;10.70;;
67715;SDS011;54508;43.238;25.306;2023-01-16T08:38:30;17.88;;;10.05;;
67715;SDS011;54508;43.238;25.306;2023-01-16T08:40:56;22.50;;;9.50;;
67715;SDS011;54508;43.238;25.306;2023-01-16T08:43:21;26.00;;;10.40;;
67715;SDS011;54508;43.238;25.306;2023-01-16T08:46:10;20.02;;;10.10;;
67715;SDS011;54508;43.238;25.306;2023-01-16T08:49:02;12.67;;;8.20;;
67715;SDS011;54508;43.238;25.306;2023-01-16T08:51:47;15.82;;;8.25;;
67715;SDS011;54508;43.238;25.306;2023-01-16T08:54:12;13.15;;;8.07;;
67715;SDS011;54508;43.238;25.306;2023-01-16T08:56:38;14.73;;;7.80;;
67715;SDS011;54508;43.238;25.306;2023-01-16T08:59:07;13.05;;;7.65;;
67715;SDS011;54508;43.238;25.306;2023-01-16T09:01:34;8.57;;;6.63;;
67715;SDS011;54508;43.238;25.306;2023-01-16T09:04:00;8.98;;;6.45;;
67715;SDS011;54508;43.238;25.306;2023-01-16T09:06:25;8.60;;;5.93;;
67715;SDS011;54508;43.238;25.306;2023-01-16T09:08:51;9.67;;;6.47;;
67715;SDS011;54508;43.238;25.306;2023-01-16T09:11:16;9.55;;;6.63;;
67715;SDS011;54508;43.238;25.306;2023-01-16T09:14:00;13.20;;;6.40;;
67715;SDS011;54508;43.238;25.306;2023-01-16T09:16:26;10.93;;;6.32;;
67715;SDS011;54508;43.238;25.306;2023-01-16T09:18:52;9.13;;;6.00;;
67715;SDS011;54508;43.238;25.306;2023-01-16T09:21:17;12.80;;;6.40;;
67715;SDS011;54508;43.238;25.306;2023-01-16T09:23:49;10.50;;;6.55;;
67715;SDS011;54508;43.238;25.306;2023-01-16T09:26:14;15.35;;;5.88;;
67715;SDS011;54508;43.238;25.306;2023-01-16T09:28:40;11.37;;;6.60;;
67715;SDS011;54508;43.238;25.306;2023-01-16T09:31:06;10.85;;;7.95;;
67715;SDS011;54508;43.238;25.306;2023-01-16T09:33:31;14.90;;;11.83;;
67715;SDS011;54508;43.238;25.306;2023-01-16T09:35:57;22.60;;;14.03;;
67715;SDS011;54508;43.238;25.306;2023-01-16T09:38:22;17.48;;;12.70;;
67715;SDS011;54508;43.238;25.306;2023-01-16T09:40:51;14.63;;;11.33;;
67715;SDS011;54508;43.238;25.306;2023-01-16T09:48:45;15.60;;;11.38;;
67715;SDS011;54508;43.238;25.306;2023-01-16T09:51:39;12.40;;;9.63;;
67715;SDS011;54508;43.238;25.306;2023-01-16T09:54:11;13.00;;;10.95;;
67715;SDS011;54508;43.238;25.306;2023-01-16T09:56:57;11.93;;;9.85;;
67715;SDS011;54508;43.238;25.306;2023-01-16T09:59:44;16.23;;;9.77;;
67715;SDS011;54508;43.238;25.306;2023-01-16T10:02:32;11.80;;;9.23;;
67715;SDS011;54508;43.238;25.306;2023-01-16T10:04:59;12.27;;;8.40;;
67715;SDS011;54508;43.238;25.306;2023-01-16T10:21:41;11.45;;;7.13;;
67715;SDS011;54508;43.238;25.306;2023-01-16T10:24:34;9.25;;;6.88;;
67715;SDS011;54508;43.238;25.306;2023-01-16T10:32:11;8.15;;;7.25;;
67715;SDS011;54508;43.238;25.306;2023-01-16T10:37:16;11.07;;;6.72;;
67715;SDS011;54508;43.238;25.306;2023-01-16T10:39:42;11.03;;;7.10;;
67715;SDS011;54508;43.238;25.306;2023-01-16T10:42:12;11.07;;;8.35;;
67715;SDS011;54508;43.238;25.306;2023-01-16T10:47:47;15.45;;;9.93;;
67715;SDS011;54508;43.238;25.306;2023-01-16T10:50:32;12.20;;;9.70;;
67715;SDS011;54508;43.238;25.306;2023-01-16T10:52:57;11.25;;;9.43;;
67715;SDS011;54508;43.238;25.306;2023-01-16T10:55:23;11.40;;;9.43;;
67715;SDS011;54508;43.238;25.306;2023-01-16T10:57:55;15.33;;;10.03;;
67715;SDS011;54508;43.238;25.306;2023-01-16T11:00:27;12.50;;;10.15;;
67715;SDS011;54508;43.238;25.306;2023-01-16T11:02:59;16.38;;;10.05;;
67715;SDS011;54508;43.238;25.306;2023-01-16T11:05:27;13.73;;;10.00;;
67715;SDS011;54508;43.238;25.306;2023-01-16T11:10:31;15.00;;;9.88;;
67715;SDS011;54508;43.238;25.306;2023-01-16T11:12:56;13.73;;;9.38;;
67715;SDS011;54508;43.238;25.306;2023-01-16T11:15:43;20.42;;;9.73;;
67715;SDS011;54508;43.238;25.306;2023-01-16T11:18:43;56.15;;;12.98;;
67715;SDS011;54508;43.238;25.306;2023-01-16T11:26:40;16.58;;;8.68;;
67715;SDS011;54508;43.238;25.306;2023-01-16T11:29:08;16.52;;;9.55;;
67715;SDS011;54508;43.238;25.306;2023-01-16T11:31:39;22.85;;;10.23;;
67715;SDS011;54508;43.238;25.306;2023-01-16T11:34:09;20.93;;;11.13;;
67715;SDS011;54508;43.238;25.306;2023-01-16T11:36:36;23.05;;;10.90;;
67715;SDS011;54508;43.238;25.306;2023-01-16T11:39:03;19.38;;;10.50;;
67715;SDS011;54508;43.238;25.306;2023-01-16T11:41:34;19.35;;;10.85;;
67715;SDS011;54508;43.238;25.306;2023-01-16T11:47:12;16.08;;;8.98;;
67715;SDS011;54508;43.238;25.306;2023-01-16T11:49:47;15.82;;;9.68;;
67715;SDS011;54508;43.238;25.306;2023-01-16T11:52:14;18.67;;;9.68;;
67715;SDS011;54508;43.238;25.306;2023-01-16T11:54:55;17.88;;;9.32;;
67715;SDS011;54508;43.238;25.306;2023-01-16T12:00:34;14.82;;;9.07;;
67715;SDS011;54508;43.238;25.306;2023-01-16T12:17:22;12.95;;;7.50;;
67715;SDS011;54508;43.238;25.306;2023-01-16T12:31:14;11.93;;;6.60;;
67715;SDS011;54508;43.238;25.306;2023-01-16T12:34:19;11.68;;;6.95;;
67715;SDS011;54508;43.238;25.306;2023-01-16T12:55:51;10.85;;;5.18;;
67715;SDS011;54508;43.238;25.306;2023-01-16T12:58:25;11.80;;;5.93;;
67715;SDS011;54508;43.238;25.306;2023-01-16T13:01:03;13.45;;;6.30;;
67715;SDS011;54508;43.238;25.306;2023-01-16T13:03:32;13.02;;;5.70;;
67715;SDS011;54508;43.238;25.306;2023-01-16T13:06:06;16.25;;;5.97;;
67715;SDS011;54508;43.238;25.306;2023-01-16T13:08:40;10.05;;;5.38;;
67715;SDS011;54508;43.238;25.306;2023-01-16T13:11:14;9.77;;;5.57;;
67715;SDS011;54508;43.238;25.306;2023-01-16T13:14:04;12.00;;;5.57;;
67715;SDS011;54508;43.238;25.306;2023-01-16T13:16:33;11.65;;;6.00;;
67715;SDS011;54508;43.238;25.306;2023-01-16T13:19:05;12.88;;;5.72;;
67715;SDS011;54508;43.238;25.306;2023-01-16T13:24:28;13.30;;;4.90;;
67715;SDS011;54508;43.238;25.306;2023-01-16T13:26:56;10.10;;;5.80;;
67715;SDS011;54508;43.238;25.306;2023-01-16T13:29:28;14.93;;;5.90;;
67715;SDS011;54508;43.238;25.306;2023-01-16T13:31:59;12.95;;;5.65;;
67715;SDS011;54508;43.238;25.306;2023-01-16T13:34:35;9.15;;;5.55;;
67715;SDS011;54508;43.238;25.306;2023-01-16T13:42:50;13.50;;;5.55;;
67715;SDS011;54508;43.238;25.306;2023-01-16T13:45:42;12.27;;;5.47;;
67715;SDS011;54508;43.238;25.306;2023-01-16T13:48:18;11.45;;;5.63;;
67715;SDS011;54508;43.238;25.306;2023-01-16T13:50:50;12.45;;;6.43;;
67715;SDS011;54508;43.238;25.306;2023-01-16T13:53:23;12.05;;;6.55;;
67715;SDS011;54508;43.238;25.306;2023-01-16T13:55:49;10.20;;;5.73;;
67715;SDS011;54508;43.238;25.306;2023-01-16T13:58:17;9.25;;;5.30;;
67715;SDS011;54508;43.238;25.306;2023-01-16T14:00:45;12.18;;;5.82;;
67715;SDS011;54508;43.238;25.306;2023-01-16T14:03:19;7.40;;;5.40;;
67715;SDS011;54508;43.238;25.306;2023-01-16T14:13:41;12.27;;;5.75;;
67715;SDS011;54508;43.238;25.306;2023-01-16T14:21:39;13.27;;;7.68;;
67715;SDS011;54508;43.238;25.306;2023-01-16T14:26:53;14.02;;;8.43;;
67715;SDS011;54508;43.238;25.306;2023-01-16T14:29:23;12.75;;;8.75;;
67715;SDS011;54508;43.238;25.306;2023-01-16T14:34:34;14.70;;;9.85;;
67715;SDS011;54508;43.238;25.306;2023-01-16T14:37:02;15.55;;;10.73;;
67715;SDS011;54508;43.238;25.306;2023-01-16T14:41:59;17.25;;;11.82;;
67715;SDS011;54508;43.238;25.306;2023-01-16T14:53:55;17.67;;;11.30;;
67715;SDS011;54508;43.238;25.306;2023-01-16T14:56:51;15.55;;;10.73;;
67715;SDS011;54508;43.238;25.306;2023-01-16T15:02:23;18.42;;;11.68;;
67715;SDS011;54508;43.238;25.306;2023-01-16T15:07:28;22.02;;;13.88;;
67715;SDS011;54508;43.238;25.306;2023-01-16T15:10:05;25.70;;;15.40;;
67715;SDS011;54508;43.238;25.306;2023-01-16T15:12:40;22.23;;;15.73;;
67715;SDS011;54508;43.238;25.306;2023-01-16T15:15:41;35.25;;;21.05;;
67715;SDS011;54508;43.238;25.306;2023-01-16T15:17:59;24.33;;;17.35;;
67715;SDS011;54508;43.238;25.306;2023-01-16T15:20:44;21.27;;;15.93;;
67715;SDS011;54508;43.238;25.306;2023-01-16T15:23:30;21.92;;;15.15;;
67715;SDS011;54508;43.238;25.306;2023-01-16T15:31:36;33.67;;;17.17;;
67715;SDS011;54508;43.238;25.306;2023-01-16T15:34:05;23.30;;;14.68;;
67715;SDS011;54508;43.238;25.306;2023-01-16T15:39:00;27.10;;;17.17;;
67715;SDS011;54508;43.238;25.306;2023-01-16T15:41:30;30.52;;;18.13;;
67715;SDS011;54508;43.238;25.306;2023-01-16T15:44:16;32.10;;;18.40;;
67715;SDS011;54508;43.238;25.306;2023-01-16T15:52:31;37.97;;;22.17;;
67715;SDS011;54508;43.238;25.306;2023-01-16T15:55:23;41.33;;;22.42;;
67715;SDS011;54508;43.238;25.306;2023-01-16T15:57:54;35.33;;;22.57;;
67715;SDS011;54508;43.238;25.306;2023-01-16T16:00:29;36.42;;;21.38;;
67715;SDS011;54508;43.238;25.306;2023-01-16T16:03:18;36.22;;;21.75;;
67715;SDS011;54508;43.238;25.306;2023-01-16T16:05:48;43.70;;;23.17;;
67715;SDS011;54508;43.238;25.306;2023-01-16T16:08:25;36.53;;;23.90;;
67715;SDS011;54508;43.238;25.306;2023-01-16T16:10:52;44.00;;;23.97;;
67715;SDS011;54508;43.238;25.306;2023-01-16T16:13:37;39.72;;;24.15;;
67715;SDS011;54508;43.238;25.306;2023-01-16T16:16:03;41.28;;;24.35;;
67715;SDS011;54508;43.238;25.306;2023-01-16T16:18:58;36.97;;;23.52;;
67715;SDS011;54508;43.238;25.306;2023-01-16T16:21:25;35.35;;;23.23;;
67715;SDS011;54508;43.238;25.306;2023-01-16T16:24:32;33.50;;;22.50;;
67715;SDS011;54508;43.238;25.306;2023-01-16T16:27:03;34.38;;;22.70;;
67715;SDS011;54508;43.238;25.306;2023-01-16T16:29:33;39.70;;;21.67;;
67715;SDS011;54508;43.238;25.306;2023-01-16T16:32:03;37.72;;;23.20;;
67715;SDS011;54508;43.238;25.306;2023-01-16T16:34:29;32.20;;;22.50;;
67715;SDS011;54508;43.238;25.306;2023-01-16T16:36:59;33.07;;;22.33;;
67715;SDS011;54508;43.238;25.306;2023-01-16T16:41:58;35.45;;;23.42;;
67715;SDS011;54508;43.238;25.306;2023-01-16T16:44:46;38.15;;;24.75;;
67715;SDS011;54508;43.238;25.306;2023-01-16T16:47:32;35.70;;;24.40;;
67715;SDS011;54508;43.238;25.306;2023-01-16T16:49:59;34.20;;;24.50;;
67715;SDS011;54508;43.238;25.306;2023-01-16T16:52:29;33.33;;;24.23;;
67715;SDS011;54508;43.238;25.306;2023-01-16T16:54:57;35.53;;;25.35;;
67715;SDS011;54508;43.238;25.306;2023-01-16T16:57:25;32.03;;;24.35;;
67715;SDS011;54508;43.238;25.306;2023-01-16T16:59:54;38.60;;;26.38;;
67715;SDS011;54508;43.238;25.306;2023-01-16T17:02:20;37.50;;;26.67;;
67715;SDS011;54508;43.238;25.306;2023-01-16T17:04:46;40.10;;;27.67;;
67715;SDS011;54508;43.238;25.306;2023-01-16T17:07:12;40.20;;;26.50;;
67715;SDS011;54508;43.238;25.306;2023-01-16T17:09:37;41.65;;;27.63;;
67715;SDS011;54508;43.238;25.306;2023-01-16T17:12:21;40.67;;;27.77;;
67715;SDS011;54508;43.238;25.306;2023-01-16T17:14:46;41.50;;;28.25;;
67715;SDS011;54508;43.238;25.306;2023-01-16T17:17:13;42.23;;;29.37;;
67715;SDS011;54508;43.238;25.306;2023-01-16T17:19:40;44.25;;;29.00;;
67715;SDS011;54508;43.238;25.306;2023-01-16T17:22:06;46.30;;;29.70;;
67715;SDS011;54508;43.238;25.306;2023-01-16T17:24:31;46.03;;;29.83;;
67715;SDS011;54508;43.238;25.306;2023-01-16T17:26:57;38.93;;;27.87;;
67715;SDS011;54508;43.238;25.306;2023-01-16T17:29:22;40.10;;;28.73;;
67715;SDS011;54508;43.238;25.306;2023-01-16T17:31:48;43.22;;;27.88;;
67715;SDS011;54508;43.238;25.306;2023-01-16T17:34:14;37.90;;;27.47;;
67715;SDS011;54508;43.238;25.306;2023-01-16T17:36:40;35.95;;;25.80;;
67715;SDS011;54508;43.238;25.306;2023-01-16T17:39:06;36.17;;;25.92;;
67715;SDS011;54508;43.238;25.306;2023-01-16T17:41:32;32.37;;;23.53;;
67715;SDS011;54508;43.238;25.306;2023-01-16T17:44:19;34.85;;;24.05;;
67715;SDS011;54508;43.238;25.306;2023-01-16T17:47:05;31.13;;;21.97;;
67715;SDS011;54508;43.238;25.306;2023-01-16T17:49:31;32.97;;;23.05;;
67715;SDS011;54508;43.238;25.306;2023-01-16T17:51:57;33.35;;;22.75;;
67715;SDS011;54508;43.238;25.306;2023-01-16T17:54:23;27.13;;;21.63;;
67715;SDS011;54508;43.238;25.306;2023-01-16T17:57:07;29.73;;;21.00;;
67715;SDS011;54508;43.238;25.306;2023-01-16T17:59:32;29.15;;;18.90;;
67715;SDS011;54508;43.238;25.306;2023-01-16T18:01:58;28.30;;;20.07;;
67715;SDS011;54508;43.238;25.306;2023-01-16T18:04:23;28.23;;;21.60;;
67715;SDS011;54508;43.238;25.306;2023-01-16T18:06:49;25.13;;;19.83;;